sensor_id;sensor_type;location;lat;lon;timestamp;P1;durP1;ratioP1;P2;durP2;ratioP2
85955;SDS011;76522;51.420;5.386;2024-03-08T00:02:03;35.75;;;18.27;;
85955;SDS011;76522;51.420;5.386;2024-03-08T00:04:29;34.20;;;19.10;;
85955;SDS011;76522;51.420;5.386;2024-03-08T00:07:00;34.15;;;19.35;;
85955;SDS011;76522;51.420;5.386;2024-03-08T00:11:52;34.72;;;19.33;;
85955;SDS011;76522;51.420;5.386;2024-03-08T00:14:18;31.15;;;16.95;;
85955;SDS011;76522;51.420;5.386;2024-03-08T00:16:43;33.13;;;19.50;;
85955;SDS011;76522;51.420;5.386;2024-03-08T00:19:09;35.78;;;19.05;;
85955;SDS011;76522;51.420;5.386;2024-03-08T00:21:35;31.02;;;17.92;;
85955;SDS011;76522;51.420;5.386;2024-03-08T00:24:01;31.48;;;17.08;;
85955;SDS011;76522;51.420;5.386;2024-03-08T00:26:27;39.15;;;18.67;;
85955;SDS011;76522;51.420;5.386;2024-03-08T00:28:53;31.75;;;16.40;;
85955;SDS011;76522;51.420;5.386;2024-03-08T00:31:19;34.83;;;18.73;;
85955;SDS011;76522;51.420;5.386;2024-03-08T00:33:45;33.65;;;18.55;;
85955;SDS011;76522;51.420;5.386;2024-03-08T00:36:11;32.70;;;19.25;;
85955;SDS011;76522;51.420;5.386;2024-03-08T00:38:37;35.70;;;19.10;;
85955;SDS011;76522;51.420;5.386;2024-03-08T00:41:03;33.90;;;18.20;;
85955;SDS011;76522;51.420;5.386;2024-03-08T00:43:28;31.83;;;18.60;;
85955;SDS011;76522;51.420;5.386;2024-03-08T00:45:57;33.50;;;17.25;;
85955;SDS011;76522;51.420;5.386;2024-03-08T00:48:23;36.08;;;18.02;;
85955;SDS011;76522;51.420;5.386;2024-03-08T00:50:49;33.17;;;18.23;;
85955;SDS011;76522;51.420;5.386;2024-03-08T00:53:15;31.00;;;16.45;;
85955;SDS011;76522;51.420;5.386;2024-03-08T00:55:41;31.25;;;17.80;;
85955;SDS011;76522;51.420;5.386;2024-03-08T00:58:07;29.60;;;18.35;;
85955;SDS011;76522;51.420;5.386;2024-03-08T01:00:34;30.55;;;18.45;;
85955;SDS011;76522;51.420;5.386;2024-03-08T01:03:00;31.48;;;18.42;;
85955;SDS011;76522;51.420;5.386;2024-03-08T01:05:25;42.95;;;18.42;;
85955;SDS011;76522;51.420;5.386;2024-03-08T01:07:51;31.05;;;18.35;;
85955;SDS011;76522;51.420;5.386;2024-03-08T01:10:17;31.13;;;17.48;;
85955;SDS011;76522;51.420;5.386;2024-03-08T01:12:43;33.22;;;17.00;;
85955;SDS011;76522;51.420;5.386;2024-03-08T01:15:09;29.63;;;17.42;;
85955;SDS011;76522;51.420;5.386;2024-03-08T01:17:38;33.42;;;18.25;;
85955;SDS011;76522;51.420;5.386;2024-03-08T01:20:04;32.70;;;19.23;;
85955;SDS011;76522;51.420;5.386;2024-03-08T01:22:30;28.25;;;16.92;;
85955;SDS011;76522;51.420;5.386;2024-03-08T01:24:56;37.13;;;18.33;;
85955;SDS011;76522;51.420;5.386;2024-03-08T01:27:22;31.40;;;18.73;;
85955;SDS011;76522;51.420;5.386;2024-03-08T01:29:49;29.35;;;17.42;;
85955;SDS011;76522;51.420;5.386;2024-03-08T01:32:15;35.90;;;19.50;;
85955;SDS011;76522;51.420;5.386;2024-03-08T01:34:41;29.50;;;18.65;;
85955;SDS011;76522;51.420;5.386;2024-03-08T01:37:07;32.38;;;17.88;;
85955;SDS011;76522;51.420;5.386;2024-03-08T01:39:33;27.55;;;18.08;;
85955;SDS011;76522;51.420;5.386;2024-03-08T01:41:59;33.42;;;18.92;;
85955;SDS011;76522;51.420;5.386;2024-03-08T01:44:26;30.35;;;17.42;;
85955;SDS011;76522;51.420;5.386;2024-03-08T01:46:51;28.00;;;17.58;;
85955;SDS011;76522;51.420;5.386;2024-03-08T01:49:19;32.22;;;18.67;;
85955;SDS011;76522;51.420;5.386;2024-03-08T01:51:47;31.48;;;17.50;;
85955;SDS011;76522;51.420;5.386;2024-03-08T01:54:16;35.25;;;18.23;;
85955;SDS011;76522;51.420;5.386;2024-03-08T01:56:45;26.88;;;16.73;;
85955;SDS011;76522;51.420;5.386;2024-03-08T01:59:11;27.40;;;17.70;;
85955;SDS011;76522;51.420;5.386;2024-03-08T02:01:39;33.20;;;18.38;;
85955;SDS011;76522;51.420;5.386;2024-03-08T02:04:05;28.52;;;16.35;;
85955;SDS011;76522;51.420;5.386;2024-03-08T02:06:32;31.50;;;18.50;;
85955;SDS011;76522;51.420;5.386;2024-03-08T02:08:58;32.28;;;17.90;;
85955;SDS011;76522;51.420;5.386;2024-03-08T02:11:24;29.20;;;17.00;;
85955;SDS011;76522;51.420;5.386;2024-03-08T02:13:49;28.00;;;17.52;;
85955;SDS011;76522;51.420;5.386;2024-03-08T02:16:24;31.38;;;18.63;;
85955;SDS011;76522;51.420;5.386;2024-03-08T02:18:50;30.77;;;17.10;;
85955;SDS011;76522;51.420;5.386;2024-03-08T02:21:16;27.35;;;18.27;;
85955;SDS011;76522;51.420;5.386;2024-03-08T02:23:46;27.88;;;17.63;;
85955;SDS011;76522;51.420;5.386;2024-03-08T02:26:12;30.05;;;18.50;;
85955;SDS011;76522;51.420;5.386;2024-03-08T02:28:37;29.15;;;17.40;;
85955;SDS011;76522;51.420;5.386;2024-03-08T02:31:04;26.92;;;17.45;;
85955;SDS011;76522;51.420;5.386;2024-03-08T02:33:33;30.60;;;17.88;;
85955;SDS011;76522;51.420;5.386;2024-03-08T02:35:59;29.40;;;17.50;;
85955;SDS011;76522;51.420;5.386;2024-03-08T02:38:25;32.38;;;17.40;;
85955;SDS011;76522;51.420;5.386;2024-03-08T02:40:51;26.75;;;16.35;;
85955;SDS011;76522;51.420;5.386;2024-03-08T02:43:19;28.55;;;17.92;;
85955;SDS011;76522;51.420;5.386;2024-03-08T02:45:47;30.33;;;17.58;;
85955;SDS011;76522;51.420;5.386;2024-03-08T02:48:13;28.50;;;18.00;;
85955;SDS011;76522;51.420;5.386;2024-03-08T02:50:41;28.20;;;17.35;;
85955;SDS011;76522;51.420;5.386;2024-03-08T02:53:10;26.42;;;15.73;;
85955;SDS011;76522;51.420;5.386;2024-03-08T02:55:39;28.20;;;16.45;;
85955;SDS011;76522;51.420;5.386;2024-03-08T02:58:06;27.33;;;16.83;;
85955;SDS011;76522;51.420;5.386;2024-03-08T03:00:34;26.85;;;16.25;;
85955;SDS011;76522;51.420;5.386;2024-03-08T03:03:04;27.20;;;16.58;;
85955;SDS011;76522;51.420;5.386;2024-03-08T03:05:31;27.48;;;17.23;;
85955;SDS011;76522;51.420;5.386;2024-03-08T03:07:59;31.90;;;17.88;;
85955;SDS011;76522;51.420;5.386;2024-03-08T03:10:25;32.13;;;17.40;;
85955;SDS011;76522;51.420;5.386;2024-03-08T03:12:51;27.67;;;16.65;;
85955;SDS011;76522;51.420;5.386;2024-03-08T03:15:18;27.40;;;17.80;;
85955;SDS011;76522;51.420;5.386;2024-03-08T03:17:47;27.45;;;16.88;;
85955;SDS011;76522;51.420;5.386;2024-03-08T03:20:16;27.42;;;17.45;;
85955;SDS011;76522;51.420;5.386;2024-03-08T03:22:51;24.52;;;15.35;;
85955;SDS011;76522;51.420;5.386;2024-03-08T03:25:20;30.55;;;17.58;;
85955;SDS011;76522;51.420;5.386;2024-03-08T03:27:52;29.70;;;18.45;;
85955;SDS011;76522;51.420;5.386;2024-03-08T03:30:21;26.08;;;17.35;;
85955;SDS011;76522;51.420;5.386;2024-03-08T03:32:51;33.08;;;20.23;;
85955;SDS011;76522;51.420;5.386;2024-03-08T03:35:17;26.52;;;17.90;;
85955;SDS011;76522;51.420;5.386;2024-03-08T03:37:45;28.02;;;16.83;;
85955;SDS011;76522;51.420;5.386;2024-03-08T03:40:29;27.23;;;17.50;;
85955;SDS011;76522;51.420;5.386;2024-03-08T03:42:55;31.52;;;19.83;;
85955;SDS011;76522;51.420;5.386;2024-03-08T03:45:21;31.63;;;18.40;;
85955;SDS011;76522;51.420;5.386;2024-03-08T03:47:47;24.13;;;15.98;;
85955;SDS011;76522;51.420;5.386;2024-03-08T03:50:12;25.85;;;17.42;;
85955;SDS011;76522;51.420;5.386;2024-03-08T03:52:38;26.00;;;16.27;;
85955;SDS011;76522;51.420;5.386;2024-03-08T03:55:07;27.73;;;15.57;;
85955;SDS011;76522;51.420;5.386;2024-03-08T03:57:33;25.35;;;16.20;;
85955;SDS011;76522;51.420;5.386;2024-03-08T03:59:59;26.20;;;17.23;;
85955;SDS011;76522;51.420;5.386;2024-03-08T04:02:25;34.20;;;18.75;;
85955;SDS011;76522;51.420;5.386;2024-03-08T04:04:51;25.48;;;17.13;;
85955;SDS011;76522;51.420;5.386;2024-03-08T04:07:19;27.15;;;18.02;;
85955;SDS011;76522;51.420;5.386;2024-03-08T04:09:45;25.77;;;17.00;;
85955;SDS011;76522;51.420;5.386;2024-03-08T04:12:11;27.85;;;17.33;;
85955;SDS011;76522;51.420;5.386;2024-03-08T04:14:38;28.95;;;17.52;;
85955;SDS011;76522;51.420;5.386;2024-03-08T04:17:06;29.20;;;17.88;;
85955;SDS011;76522;51.420;5.386;2024-03-08T04:19:34;30.48;;;19.80;;
85955;SDS011;76522;51.420;5.386;2024-03-08T04:22:00;30.80;;;18.20;;
85955;SDS011;76522;51.420;5.386;2024-03-08T04:24:27;27.98;;;19.15;;
85955;SDS011;76522;51.420;5.386;2024-03-08T04:26:52;26.23;;;16.25;;
85955;SDS011;76522;51.420;5.386;2024-03-08T04:29:18;27.77;;;16.38;;
85955;SDS011;76522;51.420;5.386;2024-03-08T04:31:44;26.85;;;17.70;;
85955;SDS011;76522;51.420;5.386;2024-03-08T04:34:10;29.10;;;19.08;;
85955;SDS011;76522;51.420;5.386;2024-03-08T04:36:36;26.48;;;16.23;;
85955;SDS011;76522;51.420;5.386;2024-03-08T04:39:02;25.67;;;16.95;;
85955;SDS011;76522;51.420;5.386;2024-03-08T04:41:28;31.17;;;16.70;;
85955;SDS011;76522;51.420;5.386;2024-03-08T04:43:55;27.13;;;17.60;;
85955;SDS011;76522;51.420;5.386;2024-03-08T04:46:23;27.80;;;19.50;;
85955;SDS011;76522;51.420;5.386;2024-03-08T04:48:49;27.40;;;16.88;;
85955;SDS011;76522;51.420;5.386;2024-03-08T04:51:14;27.02;;;17.05;;
85955;SDS011;76522;51.420;5.386;2024-03-08T04:53:41;30.63;;;17.88;;
85955;SDS011;76522;51.420;5.386;2024-03-08T04:56:07;29.23;;;16.80;;
85955;SDS011;76522;51.420;5.386;2024-03-08T04:58:35;30.02;;;16.25;;
85955;SDS011;76522;51.420;5.386;2024-03-08T05:01:01;25.13;;;16.52;;
85955;SDS011;76522;51.420;5.386;2024-03-08T05:03:27;23.77;;;15.70;;
85955;SDS011;76522;51.420;5.386;2024-03-08T05:05:53;32.80;;;19.48;;
85955;SDS011;76522;51.420;5.386;2024-03-08T05:08:19;31.35;;;17.25;;
85955;SDS011;76522;51.420;5.386;2024-03-08T05:10:44;27.73;;;17.33;;
85955;SDS011;76522;51.420;5.386;2024-03-08T05:13:11;25.30;;;16.52;;
85955;SDS011;76522;51.420;5.386;2024-03-08T05:15:38;31.75;;;17.48;;
85955;SDS011;76522;51.420;5.386;2024-03-08T05:18:04;33.03;;;17.52;;
85955;SDS011;76522;51.420;5.386;2024-03-08T05:20:30;30.52;;;17.95;;
85955;SDS011;76522;51.420;5.386;2024-03-08T05:22:56;27.45;;;18.63;;
85955;SDS011;76522;51.420;5.386;2024-03-08T05:25:25;27.13;;;17.75;;
85955;SDS011;76522;51.420;5.386;2024-03-08T05:27:51;30.60;;;18.02;;
85955;SDS011;76522;51.420;5.386;2024-03-08T05:30:17;29.85;;;18.95;;
85955;SDS011;76522;51.420;5.386;2024-03-08T05:32:43;25.35;;;16.73;;
85955;SDS011;76522;51.420;5.386;2024-03-08T05:35:11;31.58;;;19.20;;
85955;SDS011;76522;51.420;5.386;2024-03-08T05:37:38;28.45;;;18.88;;
85955;SDS011;76522;51.420;5.386;2024-03-08T05:40:07;31.20;;;17.60;;
85955;SDS011;76522;51.420;5.386;2024-03-08T05:42:36;30.83;;;19.30;;
85955;SDS011;76522;51.420;5.386;2024-03-08T05:45:03;29.58;;;19.52;;
85955;SDS011;76522;51.420;5.386;2024-03-08T05:47:29;30.80;;;19.80;;
85955;SDS011;76522;51.420;5.386;2024-03-08T05:49:55;31.10;;;19.70;;
85955;SDS011;76522;51.420;5.386;2024-03-08T05:52:20;30.80;;;19.73;;
85955;SDS011;76522;51.420;5.386;2024-03-08T05:54:46;27.10;;;18.38;;
85955;SDS011;76522;51.420;5.386;2024-03-08T05:57:12;27.65;;;17.48;;
85955;SDS011;76522;51.420;5.386;2024-03-08T05:59:39;30.25;;;18.17;;
85955;SDS011;76522;51.420;5.386;2024-03-08T06:02:05;33.65;;;19.65;;
85955;SDS011;76522;51.420;5.386;2024-03-08T06:04:31;32.15;;;19.95;;
85955;SDS011;76522;51.420;5.386;2024-03-08T06:06:56;28.02;;;18.95;;
85955;SDS011;76522;51.420;5.386;2024-03-08T06:09:23;27.67;;;18.65;;
85955;SDS011;76522;51.420;5.386;2024-03-08T06:11:50;31.15;;;19.35;;
85955;SDS011;76522;51.420;5.386;2024-03-08T06:14:19;25.77;;;18.52;;
85955;SDS011;76522;51.420;5.386;2024-03-08T06:16:45;36.03;;;21.40;;
85955;SDS011;76522;51.420;5.386;2024-03-08T06:19:11;30.98;;;18.23;;
85955;SDS011;76522;51.420;5.386;2024-03-08T06:21:38;31.55;;;21.02;;
85955;SDS011;76522;51.420;5.386;2024-03-08T06:24:04;28.63;;;20.00;;
85955;SDS011;76522;51.420;5.386;2024-03-08T06:26:30;34.05;;;19.65;;
85955;SDS011;76522;51.420;5.386;2024-03-08T06:28:56;30.15;;;18.42;;
85955;SDS011;76522;51.420;5.386;2024-03-08T06:31:22;29.77;;;19.63;;
85955;SDS011;76522;51.420;5.386;2024-03-08T06:33:48;31.38;;;20.77;;
85955;SDS011;76522;51.420;5.386;2024-03-08T06:36:19;32.92;;;19.92;;
85955;SDS011;76522;51.420;5.386;2024-03-08T06:38:46;30.55;;;19.42;;
85955;SDS011;76522;51.420;5.386;2024-03-08T06:41:13;31.55;;;19.60;;
85955;SDS011;76522;51.420;5.386;2024-03-08T06:43:44;28.75;;;19.10;;
85955;SDS011;76522;51.420;5.386;2024-03-08T06:46:11;26.15;;;17.98;;
85955;SDS011;76522;51.420;5.386;2024-03-08T06:48:38;32.38;;;20.45;;
85955;SDS011;76522;51.420;5.386;2024-03-08T06:51:04;31.95;;;19.25;;
85955;SDS011;76522;51.420;5.386;2024-03-08T06:53:30;32.95;;;19.02;;
85955;SDS011;76522;51.420;5.386;2024-03-08T06:55:56;35.90;;;19.65;;
85955;SDS011;76522;51.420;5.386;2024-03-08T06:58:23;36.67;;;21.00;;
85955;SDS011;76522;51.420;5.386;2024-03-08T07:00:48;31.60;;;20.52;;
85955;SDS011;76522;51.420;5.386;2024-03-08T07:03:17;36.95;;;18.63;;
85955;SDS011;76522;51.420;5.386;2024-03-08T07:05:43;29.45;;;17.45;;
85955;SDS011;76522;51.420;5.386;2024-03-08T07:08:09;31.85;;;18.15;;
85955;SDS011;76522;51.420;5.386;2024-03-08T07:10:35;29.35;;;18.08;;
85955;SDS011;76522;51.420;5.386;2024-03-08T07:13:02;30.27;;;19.55;;
85955;SDS011;76522;51.420;5.386;2024-03-08T07:15:28;31.95;;;18.33;;
85955;SDS011;76522;51.420;5.386;2024-03-08T07:17:54;32.45;;;19.17;;
85955;SDS011;76522;51.420;5.386;2024-03-08T07:20:20;26.98;;;18.83;;
85955;SDS011;76522;51.420;5.386;2024-03-08T07:22:46;27.75;;;16.40;;
85955;SDS011;76522;51.420;5.386;2024-03-08T07:25:13;29.73;;;20.17;;
85955;SDS011;76522;51.420;5.386;2024-03-08T07:27:54;31.30;;;19.33;;
85955;SDS011;76522;51.420;5.386;2024-03-08T07:30:21;29.58;;;18.00;;
85955;SDS011;76522;51.420;5.386;2024-03-08T07:33:06;26.95;;;16.45;;
85955;SDS011;76522;51.420;5.386;2024-03-08T07:35:35;25.65;;;17.05;;
85955;SDS011;76522;51.420;5.386;2024-03-08T07:38:02;31.77;;;18.20;;
85955;SDS011;76522;51.420;5.386;2024-03-08T07:40:36;27.55;;;18.25;;
85955;SDS011;76522;51.420;5.386;2024-03-08T07:43:04;28.48;;;18.08;;
85955;SDS011;76522;51.420;5.386;2024-03-08T07:45:30;34.90;;;18.75;;
85955;SDS011;76522;51.420;5.386;2024-03-08T07:47:55;30.88;;;16.73;;
85955;SDS011;76522;51.420;5.386;2024-03-08T07:50:21;29.92;;;15.80;;
85955;SDS011;76522;51.420;5.386;2024-03-08T07:52:47;28.65;;;17.83;;
85955;SDS011;76522;51.420;5.386;2024-03-08T07:55:13;28.55;;;20.00;;
85955;SDS011;76522;51.420;5.386;2024-03-08T07:57:43;27.98;;;18.25;;
85955;SDS011;76522;51.420;5.386;2024-03-08T08:00:09;28.15;;;18.50;;
85955;SDS011;76522;51.420;5.386;2024-03-08T08:02:36;32.50;;;19.27;;
85955;SDS011;76522;51.420;5.386;2024-03-08T08:05:01;27.63;;;20.77;;
85955;SDS011;76522;51.420;5.386;2024-03-08T08:07:28;26.15;;;14.88;;
85955;SDS011;76522;51.420;5.386;2024-03-08T08:09:54;28.60;;;18.27;;
85955;SDS011;76522;51.420;5.386;2024-03-08T08:12:20;22.55;;;14.68;;
85955;SDS011;76522;51.420;5.386;2024-03-08T08:14:46;30.48;;;19.08;;
85955;SDS011;76522;51.420;5.386;2024-03-08T08:17:11;27.60;;;18.13;;
85955;SDS011;76522;51.420;5.386;2024-03-08T08:19:37;24.23;;;16.52;;
85955;SDS011;76522;51.420;5.386;2024-03-08T08:22:05;27.15;;;17.45;;
85955;SDS011;76522;51.420;5.386;2024-03-08T08:24:33;29.75;;;18.27;;
85955;SDS011;76522;51.420;5.386;2024-03-08T08:27:01;26.98;;;16.65;;
85955;SDS011;76522;51.420;5.386;2024-03-08T08:29:28;26.63;;;15.77;;
85955;SDS011;76522;51.420;5.386;2024-03-08T08:31:53;22.63;;;13.02;;
85955;SDS011;76522;51.420;5.386;2024-03-08T08:34:19;24.73;;;13.90;;
85955;SDS011;76522;51.420;5.386;2024-03-08T08:36:48;22.38;;;13.73;;
85955;SDS011;76522;51.420;5.386;2024-03-08T08:39:14;24.60;;;16.20;;
85955;SDS011;76522;51.420;5.386;2024-03-08T08:41:42;22.20;;;15.20;;
85955;SDS011;76522;51.420;5.386;2024-03-08T08:44:10;23.58;;;15.23;;
85955;SDS011;76522;51.420;5.386;2024-03-08T08:46:37;26.35;;;15.82;;
85955;SDS011;76522;51.420;5.386;2024-03-08T08:49:04;22.00;;;14.68;;
85955;SDS011;76522;51.420;5.386;2024-03-08T08:51:31;24.52;;;15.50;;
85955;SDS011;76522;51.420;5.386;2024-03-08T08:53:58;27.00;;;15.77;;
85955;SDS011;76522;51.420;5.386;2024-03-08T08:56:24;22.95;;;14.30;;
85955;SDS011;76522;51.420;5.386;2024-03-08T08:58:51;24.95;;;16.70;;
85955;SDS011;76522;51.420;5.386;2024-03-08T09:01:21;23.92;;;14.82;;
85955;SDS011;76522;51.420;5.386;2024-03-08T09:03:50;21.23;;;12.75;;
85955;SDS011;76522;51.420;5.386;2024-03-08T09:06:17;25.63;;;15.55;;
85955;SDS011;76522;51.420;5.386;2024-03-08T09:08:43;23.45;;;16.08;;
85955;SDS011;76522;51.420;5.386;2024-03-08T09:11:09;27.20;;;16.05;;
85955;SDS011;76522;51.420;5.386;2024-03-08T09:13:35;26.52;;;15.45;;
85955;SDS011;76522;51.420;5.386;2024-03-08T09:16:04;25.55;;;17.23;;
85955;SDS011;76522;51.420;5.386;2024-03-08T09:18:31;26.83;;;18.92;;
85955;SDS011;76522;51.420;5.386;2024-03-08T09:20:57;22.73;;;15.18;;
85955;SDS011;76522;51.420;5.386;2024-03-08T09:23:24;22.30;;;14.60;;
85955;SDS011;76522;51.420;5.386;2024-03-08T09:25:55;22.88;;;14.07;;
85955;SDS011;76522;51.420;5.386;2024-03-08T09:28:24;23.17;;;14.82;;
85955;SDS011;76522;51.420;5.386;2024-03-08T09:30:50;23.92;;;15.73;;
85955;SDS011;76522;51.420;5.386;2024-03-08T09:33:16;22.83;;;15.57;;
85955;SDS011;76522;51.420;5.386;2024-03-08T09:35:47;21.63;;;14.38;;
85955;SDS011;76522;51.420;5.386;2024-03-08T09:38:13;22.35;;;14.65;;
85955;SDS011;76522;51.420;5.386;2024-03-08T09:40:43;22.65;;;14.57;;
85955;SDS011;76522;51.420;5.386;2024-03-08T09:43:09;23.95;;;15.75;;
85955;SDS011;76522;51.420;5.386;2024-03-08T09:45:36;21.48;;;15.82;;
85955;SDS011;76522;51.420;5.386;2024-03-08T09:48:12;21.13;;;13.88;;
85955;SDS011;76522;51.420;5.386;2024-03-08T09:50:39;21.75;;;14.82;;
85955;SDS011;76522;51.420;5.386;2024-03-08T09:53:06;19.58;;;12.52;;
85955;SDS011;76522;51.420;5.386;2024-03-08T09:55:36;19.40;;;13.68;;
85955;SDS011;76522;51.420;5.386;2024-03-08T09:58:05;13.60;;;8.95;;
85955;SDS011;76522;51.420;5.386;2024-03-08T10:00:50;21.05;;;13.88;;
85955;SDS011;76522;51.420;5.386;2024-03-08T10:03:16;24.10;;;17.80;;
85955;SDS011;76522;51.420;5.386;2024-03-08T10:05:41;21.52;;;15.52;;
85955;SDS011;76522;51.420;5.386;2024-03-08T10:08:09;27.25;;;13.77;;
85955;SDS011;76522;51.420;5.386;2024-03-08T10:10:36;23.52;;;15.02;;
85955;SDS011;76522;51.420;5.386;2024-03-08T10:13:04;19.65;;;13.10;;
85955;SDS011;76522;51.420;5.386;2024-03-08T10:15:34;21.80;;;14.93;;
85955;SDS011;76522;51.420;5.386;2024-03-08T10:18:00;17.25;;;12.25;;
85955;SDS011;76522;51.420;5.386;2024-03-08T10:20:30;32.08;;;16.35;;
85955;SDS011;76522;51.420;5.386;2024-03-08T10:22:59;19.98;;;12.18;;
85955;SDS011;76522;51.420;5.386;2024-03-08T10:25:28;21.65;;;13.05;;
85955;SDS011;76522;51.420;5.386;2024-03-08T10:27:55;25.63;;;16.70;;
85955;SDS011;76522;51.420;5.386;2024-03-08T10:30:21;20.42;;;13.40;;
85955;SDS011;76522;51.420;5.386;2024-03-08T10:32:48;18.23;;;11.88;;
85955;SDS011;76522;51.420;5.386;2024-03-08T10:35:13;17.48;;;13.73;;
85955;SDS011;76522;51.420;5.386;2024-03-08T10:40:25;21.38;;;15.18;;
85955;SDS011;76522;51.420;5.386;2024-03-08T10:50:55;16.00;;;10.38;;
85955;SDS011;76522;51.420;5.386;2024-03-08T10:53:26;17.73;;;11.18;;
85955;SDS011;76522;51.420;5.386;2024-03-08T10:55:54;15.38;;;9.70;;
85955;SDS011;76522;51.420;5.386;2024-03-08T10:58:22;18.27;;;11.85;;
85955;SDS011;76522;51.420;5.386;2024-03-08T11:00:56;12.10;;;7.72;;
85955;SDS011;76522;51.420;5.386;2024-03-08T11:08:40;19.95;;;11.07;;
85955;SDS011;76522;51.420;5.386;2024-03-08T11:11:06;18.23;;;10.52;;
85955;SDS011;76522;51.420;5.386;2024-03-08T11:13:59;13.88;;;10.55;;
85955;SDS011;76522;51.420;5.386;2024-03-08T11:19:00;15.02;;;11.13;;
85955;SDS011;76522;51.420;5.386;2024-03-08T11:21:29;15.20;;;10.63;;
85955;SDS011;76522;51.420;5.386;2024-03-08T11:24:07;15.77;;;13.05;;
85955;SDS011;76522;51.420;5.386;2024-03-08T11:26:36;18.02;;;9.68;;
85955;SDS011;76522;51.420;5.386;2024-03-08T11:32:09;17.80;;;12.55;;
85955;SDS011;76522;51.420;5.386;2024-03-08T11:34:37;14.68;;;10.88;;
85955;SDS011;76522;51.420;5.386;2024-03-08T11:37:13;20.25;;;11.82;;
85955;SDS011;76522;51.420;5.386;2024-03-08T11:39:40;15.30;;;10.63;;
85955;SDS011;76522;51.420;5.386;2024-03-08T11:42:12;15.68;;;12.52;;
85955;SDS011;76522;51.420;5.386;2024-03-08T11:44:38;14.35;;;10.80;;
85955;SDS011;76522;51.420;5.386;2024-03-08T11:49:39;13.40;;;10.32;;
85955;SDS011;76522;51.420;5.386;2024-03-08T11:52:12;12.82;;;10.18;;
85955;SDS011;76522;51.420;5.386;2024-03-08T11:54:42;17.45;;;11.32;;
85955;SDS011;76522;51.420;5.386;2024-03-08T11:57:17;20.45;;;10.43;;
85955;SDS011;76522;51.420;5.386;2024-03-08T11:59:49;15.38;;;10.73;;
85955;SDS011;76522;51.420;5.386;2024-03-08T12:02:18;12.27;;;8.38;;
85955;SDS011;76522;51.420;5.386;2024-03-08T12:04:45;15.27;;;8.98;;
85955;SDS011;76522;51.420;5.386;2024-03-08T12:07:14;18.38;;;10.93;;
85955;SDS011;76522;51.420;5.386;2024-03-08T12:09:43;12.68;;;10.55;;
85955;SDS011;76522;51.420;5.386;2024-03-08T12:12:30;13.93;;;9.73;;
85955;SDS011;76522;51.420;5.386;2024-03-08T12:14:57;17.15;;;10.18;;
85955;SDS011;76522;51.420;5.386;2024-03-08T12:17:23;14.10;;;11.13;;
85955;SDS011;76522;51.420;5.386;2024-03-08T12:19:49;21.77;;;10.85;;
85955;SDS011;76522;51.420;5.386;2024-03-08T12:22:15;11.13;;;8.48;;
85955;SDS011;76522;51.420;5.386;2024-03-08T12:24:40;14.82;;;10.98;;
85955;SDS011;76522;51.420;5.386;2024-03-08T12:27:19;15.68;;;10.07;;
85955;SDS011;76522;51.420;5.386;2024-03-08T12:29:45;15.93;;;10.20;;
85955;SDS011;76522;51.420;5.386;2024-03-08T12:32:12;15.18;;;10.73;;
85955;SDS011;76522;51.420;5.386;2024-03-08T12:34:37;17.30;;;11.10;;
85955;SDS011;76522;51.420;5.386;2024-03-08T12:37:03;18.30;;;12.18;;
85955;SDS011;76522;51.420;5.386;2024-03-08T12:39:32;15.07;;;9.32;;
85955;SDS011;76522;51.420;5.386;2024-03-08T12:41:58;12.43;;;8.63;;
85955;SDS011;76522;51.420;5.386;2024-03-08T12:44:24;16.98;;;13.38;;
85955;SDS011;76522;51.420;5.386;2024-03-08T12:46:50;13.45;;;10.93;;
85955;SDS011;76522;51.420;5.386;2024-03-08T12:49:16;14.32;;;9.85;;
85955;SDS011;76522;51.420;5.386;2024-03-08T12:51:43;17.45;;;11.73;;
85955;SDS011;76522;51.420;5.386;2024-03-08T12:54:10;15.80;;;9.55;;
85955;SDS011;76522;51.420;5.386;2024-03-08T12:56:36;18.70;;;10.57;;
85955;SDS011;76522;51.420;5.386;2024-03-08T12:59:05;14.73;;;10.93;;
85955;SDS011;76522;51.420;5.386;2024-03-08T13:01:33;13.55;;;9.10;;
85955;SDS011;76522;51.420;5.386;2024-03-08T13:04:02;14.73;;;10.02;;
85955;SDS011;76522;51.420;5.386;2024-03-08T13:06:29;15.43;;;10.65;;
85955;SDS011;76522;51.420;5.386;2024-03-08T13:08:56;16.30;;;12.40;;
85955;SDS011;76522;51.420;5.386;2024-03-08T13:11:23;14.40;;;9.73;;
85955;SDS011;76522;51.420;5.386;2024-03-08T13:13:49;16.45;;;11.23;;
85955;SDS011;76522;51.420;5.386;2024-03-08T13:16:18;10.27;;;7.18;;
85955;SDS011;76522;51.420;5.386;2024-03-08T13:18:46;12.15;;;8.70;;
85955;SDS011;76522;51.420;5.386;2024-03-08T13:21:15;9.82;;;6.40;;
85955;SDS011;76522;51.420;5.386;2024-03-08T13:23:45;17.92;;;11.20;;
85955;SDS011;76522;51.420;5.386;2024-03-08T13:26:14;11.85;;;8.23;;
85955;SDS011;76522;51.420;5.386;2024-03-08T13:28:41;14.13;;;8.35;;
85955;SDS011;76522;51.420;5.386;2024-03-08T13:31:07;11.63;;;8.50;;
85955;SDS011;76522;51.420;5.386;2024-03-08T13:33:35;12.48;;;7.57;;
85955;SDS011;76522;51.420;5.386;2024-03-08T13:36:05;17.15;;;9.23;;
85955;SDS011;76522;51.420;5.386;2024-03-08T13:38:31;14.10;;;10.18;;
85955;SDS011;76522;51.420;5.386;2024-03-08T13:40:58;16.98;;;9.68;;
85955;SDS011;76522;51.420;5.386;2024-03-08T13:43:24;13.57;;;7.65;;
85955;SDS011;76522;51.420;5.386;2024-03-08T13:45:50;15.35;;;7.95;;
85955;SDS011;76522;51.420;5.386;2024-03-08T13:48:17;16.83;;;9.75;;
85955;SDS011;76522;51.420;5.386;2024-03-08T13:50:43;17.50;;;10.25;;
85955;SDS011;76522;51.420;5.386;2024-03-08T13:53:08;15.30;;;9.10;;
85955;SDS011;76522;51.420;5.386;2024-03-08T13:55:35;18.27;;;9.55;;
85955;SDS011;76522;51.420;5.386;2024-03-08T13:58:00;14.20;;;9.85;;
85955;SDS011;76522;51.420;5.386;2024-03-08T14:00:27;15.57;;;8.98;;
85955;SDS011;76522;51.420;5.386;2024-03-08T14:02:58;18.00;;;9.43;;
85955;SDS011;76522;51.420;5.386;2024-03-08T14:05:24;14.80;;;9.75;;
85955;SDS011;76522;51.420;5.386;2024-03-08T14:07:50;13.55;;;8.95;;
85955;SDS011;76522;51.420;5.386;2024-03-08T14:10:19;14.43;;;8.75;;
85955;SDS011;76522;51.420;5.386;2024-03-08T14:12:47;14.73;;;9.48;;
85955;SDS011;76522;51.420;5.386;2024-03-08T14:15:15;13.45;;;8.70;;
85955;SDS011;76522;51.420;5.386;2024-03-08T14:17:41;15.35;;;8.30;;
85955;SDS011;76522;51.420;5.386;2024-03-08T14:20:07;16.30;;;9.80;;
85955;SDS011;76522;51.420;5.386;2024-03-08T14:22:34;13.63;;;8.27;;
85955;SDS011;76522;51.420;5.386;2024-03-08T14:25:00;13.65;;;7.78;;
85955;SDS011;76522;51.420;5.386;2024-03-08T14:27:26;12.43;;;7.75;;
85955;SDS011;76522;51.420;5.386;2024-03-08T14:29:52;13.40;;;8.60;;
85955;SDS011;76522;51.420;5.386;2024-03-08T14:32:19;17.67;;;9.20;;
85955;SDS011;76522;51.420;5.386;2024-03-08T14:34:48;13.10;;;8.05;;
85955;SDS011;76522;51.420;5.386;2024-03-08T14:37:14;10.95;;;7.18;;
85955;SDS011;76522;51.420;5.386;2024-03-08T14:39:40;10.50;;;6.63;;
85955;SDS011;76522;51.420;5.386;2024-03-08T14:42:06;14.30;;;8.23;;
85955;SDS011;76522;51.420;5.386;2024-03-08T14:44:33;10.85;;;7.38;;
85955;SDS011;76522;51.420;5.386;2024-03-08T14:46:59;10.27;;;6.07;;
85955;SDS011;76522;51.420;5.386;2024-03-08T14:49:25;14.48;;;8.93;;
85955;SDS011;76522;51.420;5.386;2024-03-08T14:51:54;14.13;;;8.57;;